sensor_id;sensor_type;location;lat;lon;timestamp;temperature;humidity
49489;SHT31;35382;51.484;11.476;2022-10-31T00:00:55;10.08;96.64
49489;SHT31;35382;51.484;11.476;2022-10-31T00:02:37;10.04;97.01
49489;SHT31;35382;51.484;11.476;2022-10-31T00:04:18;9.93;97.17
49489;SHT31;35382;51.484;11.476;2022-10-31T00:05:58;9.79;97.45
49489;SHT31;35382;51.484;11.476;2022-10-31T00:07:42;9.83;97.70
49489;SHT31;35382;51.484;11.476;2022-10-31T00:09:23;9.96;97.55
49489;SHT31;35382;51.484;11.476;2022-10-31T00:11:08;9.79;97.50
49489;SHT31;35382;51.484;11.476;2022-10-31T00:12:51;9.90;97.80
49489;SHT31;35382;51.484;11.476;2022-10-31T00:14:31;9.84;97.80
49489;SHT31;35382;51.484;11.476;2022-10-31T00:16:23;9.80;98.17
49489;SHT31;35382;51.484;11.476;2022-10-31T00:18:06;9.73;98.30
49489;SHT31;35382;51.484;11.476;2022-10-31T00:19:47;9.79;98.44
49489;SHT31;35382;51.484;11.476;2022-10-31T00:21:29;9.77;98.03
49489;SHT31;35382;51.484;11.476;2022-10-31T00:23:11;9.91;97.52
49489;SHT31;35382;51.484;11.476;2022-10-31T00:24:52;9.76;97.36
49489;SHT31;35382;51.484;11.476;2022-10-31T00:26:33;9.84;97.38
49489;SHT31;35382;51.484;11.476;2022-10-31T00:28:14;9.72;97.19
49489;SHT31;35382;51.484;11.476;2022-10-31T00:29:55;9.64;97.13
49489;SHT31;35382;51.484;11.476;2022-10-31T00:31:35;9.59;97.32
49489;SHT31;35382;51.484;11.476;2022-10-31T00:33:16;9.38;97.76
49489;SHT31;35382;51.484;11.476;2022-10-31T00:34:57;9.38;98.14
49489;SHT31;35382;51.484;11.476;2022-10-31T00:36:39;9.44;98.15
49489;SHT31;35382;51.484;11.476;2022-10-31T00:38:20;9.43;97.89
49489;SHT31;35382;51.484;11.476;2022-10-31T00:40:01;9.25;97.70
49489;SHT31;35382;51.484;11.476;2022-10-31T00:41:42;9.39;97.72
49489;SHT31;35382;51.484;11.476;2022-10-31T00:43:26;9.40;97.68
49489;SHT31;35382;51.484;11.476;2022-10-31T00:45:09;9.50;97.40
49489;SHT31;35382;51.484;11.476;2022-10-31T00:46:50;9.50;97.31
49489;SHT31;35382;51.484;11.476;2022-10-31T00:48:35;9.32;97.68
49489;SHT31;35382;51.484;11.476;2022-10-31T00:50:16;9.42;97.59
49489;SHT31;35382;51.484;11.476;2022-10-31T00:51:57;9.33;97.83
49489;SHT31;35382;51.484;11.476;2022-10-31T00:53:38;9.19;98.46
49489;SHT31;35382;51.484;11.476;2022-10-31T00:55:19;9.28;98.62
49489;SHT31;35382;51.484;11.476;2022-10-31T00:57:01;9.16;98.46
49489;SHT31;35382;51.484;11.476;2022-10-31T00:58:42;9.06;98.90
49489;SHT31;35382;51.484;11.476;2022-10-31T01:00:23;9.15;99.04
49489;SHT31;35382;51.484;11.476;2022-10-31T01:02:04;9.28;98.55
49489;SHT31;35382;51.484;11.476;2022-10-31T01:03:45;9.25;98.20
49489;SHT31;35382;51.484;11.476;2022-10-31T01:05:27;9.23;98.55
49489;SHT31;35382;51.484;11.476;2022-10-31T01:07:08;9.12;98.73
49489;SHT31;35382;51.484;11.476;2022-10-31T01:08:49;9.08;98.58
49489;SHT31;35382;51.484;11.476;2022-10-31T01:10:30;9.05;98.68
49489;SHT31;35382;51.484;11.476;2022-10-31T01:12:11;9.08;98.86
49489;SHT31;35382;51.484;11.476;2022-10-31T01:13:53;9.25;98.23
49489;SHT31;35382;51.484;11.476;2022-10-31T01:15:34;9.18;98.14
49489;SHT31;35382;51.484;11.476;2022-10-31T01:17:15;9.05;98.47
49489;SHT31;35382;51.484;11.476;2022-10-31T01:18:56;9.25;98.56
49489;SHT31;35382;51.484;11.476;2022-10-31T01:20:37;9.26;98.25
49489;SHT31;35382;51.484;11.476;2022-10-31T01:22:18;9.23;97.85
49489;SHT31;35382;51.484;11.476;2022-10-31T01:23:59;9.14;98.20
49489;SHT31;35382;51.484;11.476;2022-10-31T01:25:42;9.05;98.24
49489;SHT31;35382;51.484;11.476;2022-10-31T01:27:23;8.92;98.35
49489;SHT31;35382;51.484;11.476;2022-10-31T01:29:06;9.04;98.63
49489;SHT31;35382;51.484;11.476;2022-10-31T01:30:49;9.02;98.93
49489;SHT31;35382;51.484;11.476;2022-10-31T01:32:30;8.88;98.72
49489;SHT31;35382;51.484;11.476;2022-10-31T01:34:14;8.98;98.78
49489;SHT31;35382;51.484;11.476;2022-10-31T01:35:56;8.86;98.97
49489;SHT31;35382;51.484;11.476;2022-10-31T01:37:51;8.79;99.40
49489;SHT31;35382;51.484;11.476;2022-10-31T01:39:32;8.93;99.31
49489;SHT31;35382;51.484;11.476;2022-10-31T01:41:16;9.11;98.58
49489;SHT31;35382;51.484;11.476;2022-10-31T01:42:57;9.04;98.62
49489;SHT31;35382;51.484;11.476;2022-10-31T01:46:23;8.76;99.42
49489;SHT31;35382;51.484;11.476;2022-10-31T01:48:11;8.91;99.56
49489;SHT31;35382;51.484;11.476;2022-10-31T01:49:56;8.89;99.27
49489;SHT31;35382;51.484;11.476;2022-10-31T01:51:43;8.86;99.46
49489;SHT31;35382;51.484;11.476;2022-10-31T01:53:25;9.04;99.22
49489;SHT31;35382;51.484;11.476;2022-10-31T01:56:55;8.93;99.43
49489;SHT31;35382;51.484;11.476;2022-10-31T01:58:36;8.88;99.25
49489;SHT31;35382;51.484;11.476;2022-10-31T02:00:20;8.93;99.32
49489;SHT31;35382;51.484;11.476;2022-10-31T02:02:01;8.96;99.20
49489;SHT31;35382;51.484;11.476;2022-10-31T02:03:42;8.93;99.05
49489;SHT31;35382;51.484;11.476;2022-10-31T02:05:26;8.98;99.09
49489;SHT31;35382;51.484;11.476;2022-10-31T02:07:20;8.88;98.73
49489;SHT31;35382;51.484;11.476;2022-10-31T02:09:04;8.86;98.73
49489;SHT31;35382;51.484;11.476;2022-10-31T02:10:45;8.89;98.76
49489;SHT31;35382;51.484;11.476;2022-10-31T02:12:27;8.93;98.62
49489;SHT31;35382;51.484;11.476;2022-10-31T02:14:13;8.96;98.81
49489;SHT31;35382;51.484;11.476;2022-10-31T02:15:56;8.88;98.56
49489;SHT31;35382;51.484;11.476;2022-10-31T02:17:37;8.81;98.82
49489;SHT31;35382;51.484;11.476;2022-10-31T02:19:45;8.82;99.06
49489;SHT31;35382;51.484;11.476;2022-10-31T02:21:42;8.71;99.15
49489;SHT31;35382;51.484;11.476;2022-10-31T02:27:45;8.91;98.90
49489;SHT31;35382;51.484;11.476;2022-10-31T02:30:07;8.95;98.78
49489;SHT31;35382;51.484;11.476;2022-10-31T02:32:00;8.89;99.17
49489;SHT31;35382;51.484;11.476;2022-10-31T02:33:51;8.95;98.60
49489;SHT31;35382;51.484;11.476;2022-10-31T02:38:06;8.89;98.65
49489;SHT31;35382;51.484;11.476;2022-10-31T02:40:37;8.91;98.52
49489;SHT31;35382;51.484;11.476;2022-10-31T02:42:26;8.86;98.66
49489;SHT31;35382;51.484;11.476;2022-10-31T02:46:34;8.82;98.47
49489;SHT31;35382;51.484;11.476;2022-10-31T02:48:25;8.89;98.13
49489;SHT31;35382;51.484;11.476;2022-10-31T02:50:14;8.89;98.18
49489;SHT31;35382;51.484;11.476;2022-10-31T02:51:56;8.75;98.58
49489;SHT31;35382;51.484;11.476;2022-10-31T02:53:37;8.71;98.95
49489;SHT31;35382;51.484;11.476;2022-10-31T02:57:12;8.75;98.86
49489;SHT31;35382;51.484;11.476;2022-10-31T02:58:59;8.92;98.60
49489;SHT31;35382;51.484;11.476;2022-10-31T03:05:23;8.82;98.30
49489;SHT31;35382;51.484;11.476;2022-10-31T03:11:09;8.89;98.53
49489;SHT31;35382;51.484;11.476;2022-10-31T03:14:56;9.09;98.20
49489;SHT31;35382;51.484;11.476;2022-10-31T03:16:47;9.15;98.12
49489;SHT31;35382;51.484;11.476;2022-10-31T03:18:36;9.01;97.57
49489;SHT31;35382;51.484;11.476;2022-10-31T03:20:23;8.82;97.96
49489;SHT31;35382;51.484;11.476;2022-10-31T03:22:24;8.79;98.21
49489;SHT31;35382;51.484;11.476;2022-10-31T03:24:06;8.86;98.09
49489;SHT31;35382;51.484;11.476;2022-10-31T03:25:50;8.81;98.26
49489;SHT31;35382;51.484;11.476;2022-10-31T03:27:33;8.76;98.72
49489;SHT31;35382;51.484;11.476;2022-10-31T03:29:19;8.68;98.93
49489;SHT31;35382;51.484;11.476;2022-10-31T03:31:04;8.60;99.09
49489;SHT31;35382;51.484;11.476;2022-10-31T03:32:50;8.51;99.05
49489;SHT31;35382;51.484;11.476;2022-10-31T03:34:35;8.52;99.11
49489;SHT31;35382;51.484;11.476;2022-10-31T03:36:17;8.42;98.48
49489;SHT31;35382;51.484;11.476;2022-10-31T03:38:00;8.21;98.71
49489;SHT31;35382;51.484;11.476;2022-10-31T03:39:43;8.11;99.19
49489;SHT31;35382;51.484;11.476;2022-10-31T03:41:28;8.13;99.24
49489;SHT31;35382;51.484;11.476;2022-10-31T03:43:16;8.34;99.36
49489;SHT31;35382;51.484;11.476;2022-10-31T03:45:22;8.23;99.47
49489;SHT31;35382;51.484;11.476;2022-10-31T03:47:02;8.23;99.87
49489;SHT31;35382;51.484;11.476;2022-10-31T03:48:44;8.37;99.92
49489;SHT31;35382;51.484;11.476;2022-10-31T03:50:30;8.42;99.79
49489;SHT31;35382;51.484;11.476;2022-10-31T03:52:38;8.36;99.97
49489;SHT31;35382;51.484;11.476;2022-10-31T03:54:29;8.44;99.94
49489;SHT31;35382;51.484;11.476;2022-10-31T03:58:08;8.44;99.06
49489;SHT31;35382;51.484;11.476;2022-10-31T03:59:55;8.34;99.38
49489;SHT31;35382;51.484;11.476;2022-10-31T04:01:43;8.28;99.31
49489;SHT31;35382;51.484;11.476;2022-10-31T04:03:28;8.17;99.58
49489;SHT31;35382;51.484;11.476;2022-10-31T04:05:12;8.41;99.35
49489;SHT31;35382;51.484;11.476;2022-10-31T04:06:54;8.28;99.47
49489;SHT31;35382;51.484;11.476;2022-10-31T04:08:44;8.44;99.47
49489;SHT31;35382;51.484;11.476;2022-10-31T04:10:31;8.44;99.40
49489;SHT31;35382;51.484;11.476;2022-10-31T04:12:14;8.28;99.62
49489;SHT31;35382;51.484;11.476;2022-10-31T04:14:12;8.47;99.26
49489;SHT31;35382;51.484;11.476;2022-10-31T04:15:54;8.34;99.59
49489;SHT31;35382;51.484;11.476;2022-10-31T04:17:40;8.36;99.59
49489;SHT31;35382;51.484;11.476;2022-10-31T04:19:22;8.27;99.64
49489;SHT31;35382;51.484;11.476;2022-10-31T04:21:06;8.41;99.75
49489;SHT31;35382;51.484;11.476;2022-10-31T04:22:47;8.44;99.24
49489;SHT31;35382;51.484;11.476;2022-10-31T04:24:29;8.44;98.66
49489;SHT31;35382;51.484;11.476;2022-10-31T04:26:11;8.34;99.08
49489;SHT31;35382;51.484;11.476;2022-10-31T04:28:07;8.33;99.20
49489;SHT31;35382;51.484;11.476;2022-10-31T04:29:48;8.18;99.52
49489;SHT31;35382;51.484;11.476;2022-10-31T04:31:29;8.20;99.92
49489;SHT31;35382;51.484;11.476;2022-10-31T04:33:11;8.20;99.57
49489;SHT31;35382;51.484;11.476;2022-10-31T04:34:52;8.31;99.28
49489;SHT31;35382;51.484;11.476;2022-10-31T04:36:33;8.10;98.95
49489;SHT31;35382;51.484;11.476;2022-10-31T04:38:14;8.10;99.16
49489;SHT31;35382;51.484;11.476;2022-10-31T04:39:57;8.15;99.08
49489;SHT31;35382;51.484;11.476;2022-10-31T04:42:10;7.97;98.98
49489;SHT31;35382;51.484;11.476;2022-10-31T04:43:51;7.97;99.00
49489;SHT31;35382;51.484;11.476;2022-10-31T04:45:33;7.84;98.69
49489;SHT31;35382;51.484;11.476;2022-10-31T04:47:14;7.84;98.89
49489;SHT31;35382;51.484;11.476;2022-10-31T04:48:55;7.66;99.08
49489;SHT31;35382;51.484;11.476;2022-10-31T04:50:38;7.86;99.22
49489;SHT31;35382;51.484;11.476;2022-10-31T04:52:19;7.76;99.22
49489;SHT31;35382;51.484;11.476;2022-10-31T04:54:00;7.65;99.71
49489;SHT31;35382;51.484;11.476;2022-10-31T04:55:44;7.62;99.99
49489;SHT31;35382;51.484;11.476;2022-10-31T04:57:44;7.77;99.66
49489;SHT31;35382;51.484;11.476;2022-10-31T04:59:25;7.83;99.26
49489;SHT31;35382;51.484;11.476;2022-10-31T05:01:09;7.73;99.76
49489;SHT31;35382;51.484;11.476;2022-10-31T05:02:52;7.83;99.86
49489;SHT31;35382;51.484;11.476;2022-10-31T05:04:33;7.71;99.99
49489;SHT31;35382;51.484;11.476;2022-10-31T05:06:14;7.60;99.99
49489;SHT31;35382;51.484;11.476;2022-10-31T05:07:57;7.71;99.99
49489;SHT31;35382;51.484;11.476;2022-10-31T05:09:39;7.80;99.99
49489;SHT31;35382;51.484;11.476;2022-10-31T05:11:20;7.69;99.99
49489;SHT31;35382;51.484;11.476;2022-10-31T05:13:02;7.86;99.99
49489;SHT31;35382;51.484;11.476;2022-10-31T05:14:58;7.81;99.99
49489;SHT31;35382;51.484;11.476;2022-10-31T05:16:57;7.74;99.99
49489;SHT31;35382;51.484;11.476;2022-10-31T05:19:04;7.73;99.99
49489;SHT31;35382;51.484;11.476;2022-10-31T05:21:04;7.83;99.99
49489;SHT31;35382;51.484;11.476;2022-10-31T05:22:57;7.87;99.99
49489;SHT31;35382;51.484;11.476;2022-10-31T05:24:39;7.69;99.99
49489;SHT31;35382;51.484;11.476;2022-10-31T05:26:20;7.80;99.99
49489;SHT31;35382;51.484;11.476;2022-10-31T05:28:02;7.73;99.99
49489;SHT31;35382;51.484;11.476;2022-10-31T05:29:43;7.94;99.99
49489;SHT31;35382;51.484;11.476;2022-10-31T05:31:24;7.69;99.80
49489;SHT31;35382;51.484;11.476;2022-10-31T05:33:07;7.55;99.99
49489;SHT31;35382;51.484;11.476;2022-10-31T05:35:00;7.58;99.99
49489;SHT31;35382;51.484;11.476;2022-10-31T05:37:13;7.83;99.79
49489;SHT31;35382;51.484;11.476;2022-10-31T05:38:54;7.81;99.92
49489;SHT31;35382;51.484;11.476;2022-10-31T05:40:38;7.70;99.84
49489;SHT31;35382;51.484;11.476;2022-10-31T05:42:20;7.59;99.99
49489;SHT31;35382;51.484;11.476;2022-10-31T05:44:02;7.59;99.99
49489;SHT31;35382;51.484;11.476;2022-10-31T05:45:45;7.62;99.99
49489;SHT31;35382;51.484;11.476;2022-10-31T05:47:52;7.56;99.99
49489;SHT31;35382;51.484;11.476;2022-10-31T05:49:53;7.58;99.99
49489;SHT31;35382;51.484;11.476;2022-10-31T05:51:53;7.65;99.99
49489;SHT31;35382;51.484;11.476;2022-10-31T05:53:38;7.69;99.99
49489;SHT31;35382;51.484;11.476;2022-10-31T05:55:20;7.62;99.99
49489;SHT31;35382;51.484;11.476;2022-10-31T05:57:17;7.52;99.99
49489;SHT31;35382;51.484;11.476;2022-10-31T05:58:58;7.52;99.99
49489;SHT31;35382;51.484;11.476;2022-10-31T06:00:41;7.58;99.99
49489;SHT31;35382;51.484;11.476;2022-10-31T06:02:24;7.66;99.99
49489;SHT31;35382;51.484;11.476;2022-10-31T06:04:23;7.79;99.99
49489;SHT31;35382;51.484;11.476;2022-10-31T06:06:04;7.90;99.99
49489;SHT31;35382;51.484;11.476;2022-10-31T06:07:49;7.79;99.99
49489;SHT31;35382;51.484;11.476;2022-10-31T06:09:30;7.81;99.99
49489;SHT31;35382;51.484;11.476;2022-10-31T06:11:11;7.90;99.99
49489;SHT31;35382;51.484;11.476;2022-10-31T06:13:11;7.94;99.57
49489;SHT31;35382;51.484;11.476;2022-10-31T06:14:58;7.84;99.47
49489;SHT31;35382;51.484;11.476;2022-10-31T06:16:39;7.84;99.74
49489;SHT31;35382;51.484;11.476;2022-10-31T06:18:40;7.76;99.64
49489;SHT31;35382;51.484;11.476;2022-10-31T06:20:21;7.59;99.84
49489;SHT31;35382;51.484;11.476;2022-10-31T06:22:12;7.89;99.83
49489;SHT31;35382;51.484;11.476;2022-10-31T06:23:53;7.74;99.71
49489;SHT31;35382;51.484;11.476;2022-10-31T06:26:06;7.58;99.97
49489;SHT31;35382;51.484;11.476;2022-10-31T06:27:47;7.62;99.99
49489;SHT31;35382;51.484;11.476;2022-10-31T06:29:29;7.77;99.99
49489;SHT31;35382;51.484;11.476;2022-10-31T06:31:22;7.87;99.58
49489;SHT31;35382;51.484;11.476;2022-10-31T06:33:04;8.01;99.10
49489;SHT31;35382;51.484;11.476;2022-10-31T06:34:45;7.89;99.37
49489;SHT31;35382;51.484;11.476;2022-10-31T06:36:28;7.77;99.99
49489;SHT31;35382;51.484;11.476;2022-10-31T06:38:09;7.86;99.99
49489;SHT31;35382;51.484;11.476;2022-10-31T06:39:53;7.95;99.99
49489;SHT31;35382;51.484;11.476;2022-10-31T06:41:34;7.93;99.99
49489;SHT31;35382;51.484;11.476;2022-10-31T06:43:17;7.97;99.99
49489;SHT31;35382;51.484;11.476;2022-10-31T06:44:58;7.86;99.99
49489;SHT31;35382;51.484;11.476;2022-10-31T06:46:58;7.91;99.99
49489;SHT31;35382;51.484;11.476;2022-10-31T06:49:11;8.17;99.99
49489;SHT31;35382;51.484;11.476;2022-10-31T06:51:00;8.08;99.99
49489;SHT31;35382;51.484;11.476;2022-10-31T06:52:42;8.10;99.99
49489;SHT31;35382;51.484;11.476;2022-10-31T06:54:23;8.14;99.99
49489;SHT31;35382;51.484;11.476;2022-10-31T06:56:04;8.30;99.99
49489;SHT31;35382;51.484;11.476;2022-10-31T06:57:58;8.42;99.99
49489;SHT31;35382;51.484;11.476;2022-10-31T06:59:40;8.52;99.99
49489;SHT31;35382;51.484;11.476;2022-10-31T07:01:29;8.57;99.99
49489;SHT31;35382;51.484;11.476;2022-10-31T07:03:13;8.62;99.99
49489;SHT31;35382;51.484;11.476;2022-10-31T07:04:54;8.57;99.99
49489;SHT31;35382;51.484;11.476;2022-10-31T07:06:35;8.60;99.99
49489;SHT31;35382;51.484;11.476;2022-10-31T07:08:16;8.69;99.99
49489;SHT31;35382;51.484;11.476;2022-10-31T07:09:57;8.92;99.99
49489;SHT31;35382;51.484;11.476;2022-10-31T07:11:54;8.98;99.99
49489;SHT31;35382;51.484;11.476;2022-10-31T07:13:35;9.26;99.99
49489;SHT31;35382;51.484;11.476;2022-10-31T07:15:22;9.38;99.99
49489;SHT31;35382;51.484;11.476;2022-10-31T07:17:03;9.43;99.86
49489;SHT31;35382;51.484;11.476;2022-10-31T07:18:54;9.42;99.82
49489;SHT31;35382;51.484;11.476;2022-10-31T07:20:35;9.54;99.98
49489;SHT31;35382;51.484;11.476;2022-10-31T07:22:17;9.70;99.99
49489;SHT31;35382;51.484;11.476;2022-10-31T07:23:59;9.80;99.99
49489;SHT31;35382;51.484;11.476;2022-10-31T07:25:59;9.93;99.99
49489;SHT31;35382;51.484;11.476;2022-10-31T07:27:46;10.10;99.95
49489;SHT31;35382;51.484;11.476;2022-10-31T07:29:27;10.22;99.83
49489;SHT31;35382;51.484;11.476;2022-10-31T07:31:08;10.31;99.58
49489;SHT31;35382;51.484;11.476;2022-10-31T07:32:51;10.54;97.73
49489;SHT31;35382;51.484;11.476;2022-10-31T07:34:33;10.71;97.40
49489;SHT31;35382;51.484;11.476;2022-10-31T07:36:43;10.84;96.96
49489;SHT31;35382;51.484;11.476;2022-10-31T07:38:27;10.69;96.75
49489;SHT31;35382;51.484;11.476;2022-10-31T07:40:09;10.72;96.72
49489;SHT31;35382;51.484;11.476;2022-10-31T07:41:50;10.74;96.70
49489;SHT31;35382;51.484;11.476;2022-10-31T07:43:33;10.84;96.49
49489;SHT31;35382;51.484;11.476;2022-10-31T07:45:32;10.91;96.65
49489;SHT31;35382;51.484;11.476;2022-10-31T07:47:47;11.08;97.08
49489;SHT31;35382;51.484;11.476;2022-10-31T07:49:47;11.26;96.57
49489;SHT31;35382;51.484;11.476;2022-10-31T07:51:47;11.44;96.53
49489;SHT31;35382;51.484;11.476;2022-10-31T07:54:00;11.58;96.34
49489;SHT31;35382;51.484;11.476;2022-10-31T07:55:44;11.72;95.73
49489;SHT31;35382;51.484;11.476;2022-10-31T07:57:27;11.73;95.76
49489;SHT31;35382;51.484;11.476;2022-10-31T07:59:09;11.74;95.31
49489;SHT31;35382;51.484;11.476;2022-10-31T08:00:50;11.91;95.21
49489;SHT31;35382;51.484;11.476;2022-10-31T08:02:42;12.08;94.72
49489;SHT31;35382;51.484;11.476;2022-10-31T08:04:46;12.31;94.13
49489;SHT31;35382;51.484;11.476;2022-10-31T08:06:50;12.57;91.15
49489;SHT31;35382;51.484;11.476;2022-10-31T08:08:42;12.57;89.89
49489;SHT31;35382;51.484;11.476;2022-10-31T08:10:24;12.60;90.23
49489;SHT31;35382;51.484;11.476;2022-10-31T08:12:06;12.62;91.27
49489;SHT31;35382;51.484;11.476;2022-10-31T08:13:49;12.77;91.69
49489;SHT31;35382;51.484;11.476;2022-10-31T08:15:31;12.81;91.76
49489;SHT31;35382;51.484;11.476;2022-10-31T08:17:13;12.57;91.74
49489;SHT31;35382;51.484;11.476;2022-10-31T08:19:15;12.65;91.84
49489;SHT31;35382;51.484;11.476;2022-10-31T08:20:57;12.71;91.55
49489;SHT31;35382;51.484;11.476;2022-10-31T08:22:38;12.87;91.31
49489;SHT31;35382;51.484;11.476;2022-10-31T08:24:19;12.87;91.53
49489;SHT31;35382;51.484;11.476;2022-10-31T08:26:00;12.96;90.70
49489;SHT31;35382;51.484;11.476;2022-10-31T08:27:41;13.06;90.41
49489;SHT31;35382;51.484;11.476;2022-10-31T08:29:30;12.89;91.05
49489;SHT31;35382;51.484;11.476;2022-10-31T08:31:11;12.96;90.82
49489;SHT31;35382;51.484;11.476;2022-10-31T08:33:11;12.84;90.91
49489;SHT31;35382;51.484;11.476;2022-10-31T08:35:15;13.12;90.45
49489;SHT31;35382;51.484;11.476;2022-10-31T08:37:16;13.26;90.35
49489;SHT31;35382;51.484;11.476;2022-10-31T08:39:01;13.28;89.91
49489;SHT31;35382;51.484;11.476;2022-10-31T08:40:43;13.49;89.93
49489;SHT31;35382;51.484;11.476;2022-10-31T08:42:24;13.67;89.24
49489;SHT31;35382;51.484;11.476;2022-10-31T08:44:05;13.72;89.33
49489;SHT31;35382;51.484;11.476;2022-10-31T08:45:49;13.99;88.42
49489;SHT31;35382;51.484;11.476;2022-10-31T08:47:37;13.93;88.21
49489;SHT31;35382;51.484;11.476;2022-10-31T08:49:19;14.03;87.97
49489;SHT31;35382;51.484;11.476;2022-10-31T08:51:00;14.24;86.76
49489;SHT31;35382;51.484;11.476;2022-10-31T08:52:43;14.28;86.96
49489;SHT31;35382;51.484;11.476;2022-10-31T08:54:24;14.36;87.87
49489;SHT31;35382;51.484;11.476;2022-10-31T08:56:11;14.50;85.74
49489;SHT31;35382;51.484;11.476;2022-10-31T08:57:58;14.64;84.73
49489;SHT31;35382;51.484;11.476;2022-10-31T08:59:44;14.73;86.43
49489;SHT31;35382;51.484;11.476;2022-10-31T09:01:39;14.41;86.94
49489;SHT31;35382;51.484;11.476;2022-10-31T09:03:23;14.61;87.89
49489;SHT31;35382;51.484;11.476;2022-10-31T09:05:04;14.44;84.55
49489;SHT31;35382;51.484;11.476;2022-10-31T09:06:45;14.38;84.51
49489;SHT31;35382;51.484;11.476;2022-10-31T09:08:32;14.51;85.51
49489;SHT31;35382;51.484;11.476;2022-10-31T09:10:15;14.37;85.59
49489;SHT31;35382;51.484;11.476;2022-10-31T09:11:56;14.73;84.70
49489;SHT31;35382;51.484;11.476;2022-10-31T09:13:56;14.84;85.43
49489;SHT31;35382;51.484;11.476;2022-10-31T09:15:44;14.92;84.58
49489;SHT31;35382;51.484;11.476;2022-10-31T09:17:35;15.08;85.61
49489;SHT31;35382;51.484;11.476;2022-10-31T09:19:32;15.09;84.67
49489;SHT31;35382;51.484;11.476;2022-10-31T09:21:13;15.17;84.08
49489;SHT31;35382;51.484;11.476;2022-10-31T09:23:01;15.15;83.69
49489;SHT31;35382;51.484;11.476;2022-10-31T09:24:44;15.42;84.67
49489;SHT31;35382;51.484;11.476;2022-10-31T09:26:25;15.38;85.23
49489;SHT31;35382;51.484;11.476;2022-10-31T09:28:26;15.42;85.36
49489;SHT31;35382;51.484;11.476;2022-10-31T09:30:09;15.59;85.38
49489;SHT31;35382;51.484;11.476;2022-10-31T09:31:51;15.82;84.68
49489;SHT31;35382;51.484;11.476;2022-10-31T09:33:43;15.82;83.73
49489;SHT31;35382;51.484;11.476;2022-10-31T09:35:44;15.56;84.90
49489;SHT31;35382;51.484;11.476;2022-10-31T09:37:26;15.70;83.63
49489;SHT31;35382;51.484;11.476;2022-10-31T09:39:07;15.76;84.82
49489;SHT31;35382;51.484;11.476;2022-10-31T09:41:12;15.78;84.32
49489;SHT31;35382;51.484;11.476;2022-10-31T09:45:19;15.96;85.74
49489;SHT31;35382;51.484;11.476;2022-10-31T09:47:22;16.44;84.89
49489;SHT31;35382;51.484;11.476;2022-10-31T09:49:37;16.23;84.08
49489;SHT31;35382;51.484;11.476;2022-10-31T09:51:42;15.93;84.13
49489;SHT31;35382;51.484;11.476;2022-10-31T09:53:43;16.37;84.29
49489;SHT31;35382;51.484;11.476;2022-10-31T09:55:37;16.50;83.71
49489;SHT31;35382;51.484;11.476;2022-10-31T09:57:27;16.09;84.70
49489;SHT31;35382;51.484;11.476;2022-10-31T09:59:20;16.03;85.53
49489;SHT31;35382;51.484;11.476;2022-10-31T10:01:02;15.93;85.62
49489;SHT31;35382;51.484;11.476;2022-10-31T10:04:55;16.07;85.95
49489;SHT31;35382;51.484;11.476;2022-10-31T10:06:43;16.26;87.62
49489;SHT31;35382;51.484;11.476;2022-10-31T10:08:44;16.46;86.06
49489;SHT31;35382;51.484;11.476;2022-10-31T10:10:58;16.50;85.35
49489;SHT31;35382;51.484;11.476;2022-10-31T10:15:39;16.51;85.30
49489;SHT31;35382;51.484;11.476;2022-10-31T10:17:33;16.61;85.55
49489;SHT31;35382;51.484;11.476;2022-10-31T10:19:27;16.59;83.70
49489;SHT31;35382;51.484;11.476;2022-10-31T10:21:29;16.83;86.41
49489;SHT31;35382;51.484;11.476;2022-10-31T10:23:41;17.27;82.16
49489;SHT31;35382;51.484;11.476;2022-10-31T10:25:33;17.48;80.86
49489;SHT31;35382;51.484;11.476;2022-10-31T10:27:17;17.35;82.57
49489;SHT31;35382;51.484;11.476;2022-10-31T10:31:15;17.58;80.61
49489;SHT31;35382;51.484;11.476;2022-10-31T10:32:59;17.71;81.16
49489;SHT31;35382;51.484;11.476;2022-10-31T10:34:45;17.53;80.81
49489;SHT31;35382;51.484;11.476;2022-10-31T10:36:30;17.31;81.34
49489;SHT31;35382;51.484;11.476;2022-10-31T10:38:34;17.55;80.32
49489;SHT31;35382;51.484;11.476;2022-10-31T10:40:20;17.15;82.78
49489;SHT31;35382;51.484;11.476;2022-10-31T10:42:09;17.11;83.71
49489;SHT31;35382;51.484;11.476;2022-10-31T10:44:10;17.31;82.33
49489;SHT31;35382;51.484;11.476;2022-10-31T10:50:22;17.32;81.79
49489;SHT31;35382;51.484;11.476;2022-10-31T10:56:39;17.07;85.40
49489;SHT31;35382;51.484;11.476;2022-10-31T10:58:22;17.07;85.49
49489;SHT31;35382;51.484;11.476;2022-10-31T11:00:16;16.95;86.46
49489;SHT31;35382;51.484;11.476;2022-10-31T11:01:58;16.91;85.03
49489;SHT31;35382;51.484;11.476;2022-10-31T11:03:40;16.84;86.45
49489;SHT31;35382;51.484;11.476;2022-10-31T11:05:35;16.98;85.68
49489;SHT31;35382;51.484;11.476;2022-10-31T11:07:16;16.95;86.30
49489;SHT31;35382;51.484;11.476;2022-10-31T11:09:08;16.89;85.18
49489;SHT31;35382;51.484;11.476;2022-10-31T11:13:14;17.28;84.31
49489;SHT31;35382;51.484;11.476;2022-10-31T11:15:00;17.19;84.87
49489;SHT31;35382;51.484;11.476;2022-10-31T11:16:48;17.14;85.87
49489;SHT31;35382;51.484;11.476;2022-10-31T11:18:32;17.43;84.51
49489;SHT31;35382;51.484;11.476;2022-10-31T11:22:05;17.71;83.95
49489;SHT31;35382;51.484;11.476;2022-10-31T11:23:47;17.53;83.46
49489;SHT31;35382;51.484;11.476;2022-10-31T11:25:27;17.56;84.36
49489;SHT31;35382;51.484;11.476;2022-10-31T11:27:20;17.82;83.52
49489;SHT31;35382;51.484;11.476;2022-10-31T11:29:01;17.66;84.46
49489;SHT31;35382;51.484;11.476;2022-10-31T11:30:48;17.61;84.67
49489;SHT31;35382;51.484;11.476;2022-10-31T11:32:30;17.27;86.00
49489;SHT31;35382;51.484;11.476;2022-10-31T11:34:31;17.31;85.98
49489;SHT31;35382;51.484;11.476;2022-10-31T11:36:35;17.46;86.26
49489;SHT31;35382;51.484;11.476;2022-10-31T11:38:18;17.45;85.15
49489;SHT31;35382;51.484;11.476;2022-10-31T11:40:03;17.55;86.06
49489;SHT31;35382;51.484;11.476;2022-10-31T11:41:45;17.53;85.36
49489;SHT31;35382;51.484;11.476;2022-10-31T11:43:26;17.35;84.75
49489;SHT31;35382;51.484;11.476;2022-10-31T11:45:37;17.36;86.18
49489;SHT31;35382;51.484;11.476;2022-10-31T11:47:25;17.39;85.61
49489;SHT31;35382;51.484;11.476;2022-10-31T11:49:22;17.36;84.57
49489;SHT31;35382;51.484;11.476;2022-10-31T11:51:05;17.46;83.92
49489;SHT31;35382;51.484;11.476;2022-10-31T11:52:46;17.42;84.63
49489;SHT31;35382;51.484;11.476;2022-10-31T11:54:38;17.48;85.54
49489;SHT31;35382;51.484;11.476;2022-10-31T11:56:21;17.28;85.99
49489;SHT31;35382;51.484;11.476;2022-10-31T11:58:02;17.12;85.94
49489;SHT31;35382;51.484;11.476;2022-10-31T11:59:51;17.03;85.94
49489;SHT31;35382;51.484;11.476;2022-10-31T12:01:32;17.04;86.43